Time;durP1;ratioP1;P1;durP2;ratioP2;P2;SDS_P1;SDS_P2;PMS_P1;PMS_P2;Temp;Humidity;BMP_temperature;BMP_pressure;BME280_temperature;BME280_humidity;BME280_pressure;Samples;Min_cycle;Max_cycle;Signal;HPM_P1;HPM_P2
2023/11/01 00:00:27;;;;;;;;;;;;;;;20.68;30.00;97360.94;4940856;29;1404;-79
2023/11/01 00:02:52;;;;;;;;;;;;;;;20.72;29.79;97355.94;4940887;29;1906;-79
2023/11/01 00:05:18;;;;;;;;;;;;;;;20.64;29.75;97361.03;4940266;29;1452;-80
2023/11/01 00:07:43;;;;;;;;;;;;;;;20.73;29.72;97358.31;4924762;29;1476;-80
2023/11/01 00:10:09;;;;;;;;;;;;;;;20.93;29.41;97355.22;4955949;29;1354;-80
2023/11/01 00:12:34;;;;;;;;;;;;;;;20.84;29.68;97351.53;4931066;29;1500;-79
2023/11/01 00:15:00;;;;;;;;;;;;;;;20.81;29.72;97348.34;4940817;29;1724;-81
2023/11/01 00:17:25;;;;;;;;;;;;;;;20.85;29.88;97347.44;4954145;28;1471;-79
2023/11/01 00:19:51;;;;;;;;;;;;;;;20.55;30.29;97343.97;4976384;28;1232;-80
2023/11/01 00:22:17;;;;;;;;;;;;;;;20.65;30.05;97342.84;4957032;29;1973;-80
2023/11/01 00:24:42;;;;;;;;;;;;;;;20.95;29.31;97346.28;4971209;28;1535;-79
2023/11/01 00:27:08;;;;;;;;;;;;;;;20.80;29.78;97341.13;4978163;28;1405;-80
2023/11/01 00:29:33;;;;;;;;;;;;;;;20.54;30.13;97346.00;4976421;28;1591;-79
2023/11/01 00:31:59;;;;;;;;;;;;;;;20.77;29.76;97347.66;4957735;28;1467;-80
2023/11/01 00:34:24;;;;;;;;;;;;;;;20.72;29.80;97345.41;4953034;29;1473;-80
2023/11/01 00:36:50;;;;;;;;;;;;;;;20.89;29.69;97343.25;4937788;29;1427;-80
2023/11/01 00:39:15;;;;;;;;;;;;;;;20.76;29.95;97340.44;4938680;29;1584;-79
2023/11/01 00:41:41;;;;;;;;;;;;;;;20.88;29.59;97340.84;4924814;29;1367;-79
2023/11/01 00:44:07;;;;;;;;;;;;;;;20.70;29.90;97342.25;4947420;28;1997;-80
2023/11/01 00:46:33;;;;;;;;;;;;;;;20.77;29.72;97344.84;4957818;29;1595;-80
2023/11/01 00:48:58;;;;;;;;;;;;;;;20.99;29.42;97344.13;4932952;29;1471;-78
2023/11/01 00:51:24;;;;;;;;;;;;;;;21.06;29.45;97352.38;4942820;29;1549;-79
2023/11/01 00:53:49;;;;;;;;;;;;;;;21.15;29.30;97355.28;4927781;29;1494;-80
2023/11/01 00:56:15;;;;;;;;;;;;;;;20.98;29.43;97356.66;4957234;29;1438;-79
2023/11/01 00:58:40;;;;;;;;;;;;;;;20.72;29.85;97348.25;4918419;29;1387;-79
2023/11/01 01:01:06;;;;;;;;;;;;;;;20.72;29.69;97345.41;4945229;29;1452;-79
2023/11/01 01:03:31;;;;;;;;;;;;;;;20.94;29.57;97347.53;4914429;29;1907;-80
2023/11/01 01:05:57;;;;;;;;;;;;;;;20.76;29.79;97340.44;4943292;29;1527;-80
2023/11/01 01:08:22;;;;;;;;;;;;;;;20.79;29.64;97345.19;4954447;29;1462;-79
2023/11/01 01:10:48;;;;;;;;;;;;;;;20.89;29.39;97336.81;4925968;29;1452;-80
2023/11/01 01:13:14;;;;;;;;;;;;;;;20.77;29.97;97335.56;4926885;29;1361;-79
2023/11/01 01:15:39;;;;;;;;;;;;;;;20.70;29.70;97330.94;4918859;29;1401;-80
2023/11/01 01:18:06;;;;;;;;;;;;;;;20.78;29.83;97332.31;4913413;29;1448;-80
2023/11/01 01:20:31;;;;;;;;;;;;;;;20.75;29.70;97336.03;4938384;29;1428;-79
2023/11/01 01:22:57;;;;;;;;;;;;;;;20.86;29.63;97332.06;4932443;29;1895;-79
2023/11/01 01:25:22;;;;;;;;;;;;;;;20.83;29.62;97344.25;4942785;29;1575;-80
2023/11/01 01:27:48;;;;;;;;;;;;;;;20.58;29.96;97345.91;4927565;29;1615;-79
2023/11/01 01:30:13;;;;;;;;;;;;;;;20.80;29.76;97358.06;4957870;29;1494;-80
2023/11/01 01:32:39;;;;;;;;;;;;;;;20.71;29.96;97355.16;4940285;29;1738;-80
2023/11/01 01:35:05;;;;;;;;;;;;;;;20.80;29.56;97358.06;4968942;28;1647;-79
2023/11/01 01:37:30;;;;;;;;;;;;;;;20.78;29.51;97369.06;4979691;28;1638;-80
2023/11/01 01:39:56;;;;;;;;;;;;;;;20.70;29.97;97370.53;4978703;28;1600;-79
2023/11/01 01:42:21;;;;;;;;;;;;;;;20.81;29.56;97384.31;4979445;28;2001;-80
2023/11/01 01:44:47;;;;;;;;;;;;;;;20.63;29.77;97381.28;4978901;28;1493;-80
2023/11/01 01:47:12;;;;;;;;;;;;;;;20.96;29.44;97376.16;4980328;28;1417;-79
2023/11/01 01:49:38;;;;;;;;;;;;;;;20.91;29.59;97390.84;4978907;28;1426;-79
2023/11/01 01:52:03;;;;;;;;;;;;;;;20.98;29.29;97384.94;4979417;28;1422;-80
2023/11/01 01:54:29;;;;;;;;;;;;;;;20.86;29.50;97371.63;4959779;28;1490;-80
2023/11/01 01:56:54;;;;;;;;;;;;;;;21.03;29.53;97378.72;4943130;29;1455;-80
2023/11/01 01:59:20;;;;;;;;;;;;;;;21.17;28.91;97381.06;4961231;28;1513;-80
2023/11/01 02:01:46;;;;;;;;;;;;;;;20.79;29.67;97373.47;4963009;28;1403;-79
2023/11/01 02:04:12;;;;;;;;;;;;;;;20.77;29.94;97363.84;4962558;28;1911;-80
2023/11/01 02:06:38;;;;;;;;;;;;;;;20.85;29.76;97364.41;4962620;28;1311;-80
2023/11/01 02:09:05;;;;;;;;;;;;;;;20.90;29.71;97361.00;4962549;28;1517;-80
2023/11/01 02:11:31;;;;;;;;;;;;;;;21.04;29.15;97364.16;4979015;28;1383;-80
2023/11/01 02:13:57;;;;;;;;;;;;;;;20.98;29.25;97373.63;4962687;28;1439;-80
2023/11/01 02:16:22;;;;;;;;;;;;;;;20.90;29.69;97378.75;4962671;28;1448;-80
2023/11/01 02:18:48;;;;;;;;;;;;;;;20.98;29.29;97367.97;4941780;29;1443;-80
2023/11/01 02:21:14;;;;;;;;;;;;;;;20.93;29.41;97366.53;4942704;29;1522;-79
2023/11/01 02:23:40;;;;;;;;;;;;;;;20.99;29.46;97378.06;4925870;29;1903;-79
2023/11/01 02:26:07;;;;;;;;;;;;;;;20.76;29.67;97374.38;4911111;29;1493;-80
2023/11/01 02:28:32;;;;;;;;;;;;;;;20.74;30.21;97371.22;4941787;29;1639;-80
2023/11/01 02:30:58;;;;;;;;;;;;;;;21.01;29.74;97390.50;4941283;29;1463;-80
2023/11/01 02:33:24;;;;;;;;;;;;;;;20.97;29.76;97384.16;4942046;29;1379;-79
2023/11/01 02:35:49;;;;;;;;;;;;;;;20.76;29.84;97384.88;4922918;29;1274;-80
2023/11/01 02:38:15;;;;;;;;;;;;;;;20.79;29.89;97395.28;4922891;29;1476;-79
2023/11/01 02:40:40;;;;;;;;;;;;;;;20.74;29.86;97391.00;4923026;29;1420;-80
2023/11/01 02:43:06;;;;;;;;;;;;;;;20.76;29.81;97385.66;4906962;29;1914;-80
2023/11/01 02:45:31;;;;;;;;;;;;;;;20.75;30.21;97372.78;4938515;29;1423;-80
2023/11/01 02:47:57;;;;;;;;;;;;;;;21.02;29.53;97379.97;4922892;29;1507;-80
2023/11/01 02:50:23;;;;;;;;;;;;;;;20.74;29.87;97362.72;4951589;29;1423;-79
2023/11/01 02:52:49;;;;;;;;;;;;;;;20.98;29.69;97362.31;4938746;29;1582;-80
2023/11/01 02:55:14;;;;;;;;;;;;;;;20.69;29.78;97363.31;4936847;29;1463;-80
2023/11/01 02:57:40;;;;;;;;;;;;;;;20.96;29.37;97359.19;4935696;29;1535;-80
2023/11/01 03:00:07;;;;;;;;;;;;;;;20.95;29.51;97364.03;4938389;29;1502;-80
2023/11/01 03:02:32;;;;;;;;;;;;;;;20.99;29.69;97375.25;4954788;29;1914;-80
2023/11/01 03:04:58;;;;;;;;;;;;;;;20.91;29.89;97373.91;4957155;29;1411;-80
2023/11/01 03:07:24;;;;;;;;;;;;;;;20.69;29.95;97363.31;4907867;28;1374;-80
2023/11/01 03:09:49;;;;;;;;;;;;;;;21.01;29.75;97370.69;4976854;28;1284;-79
2023/11/01 03:12:15;;;;;;;;;;;;;;;21.11;29.34;97365.94;4959603;28;1604;-80
2023/11/01 03:14:41;;;;;;;;;;;;;;;20.96;29.80;97374.09;4978507;28;1543;-80
2023/11/01 03:17:06;;;;;;;;;;;;;;;20.97;29.77;97369.25;4943684;28;1491;-80
2023/11/01 03:19:32;;;;;;;;;;;;;;;20.83;29.96;97373.34;4977429;28;1493;-80
2023/11/01 03:21:58;;;;;;;;;;;;;;;21.07;29.73;97365.25;4927625;29;1497;-80
2023/11/01 03:24:23;;;;;;;;;;;;;;;20.81;30.09;97364.53;4907510;29;1982;-80
2023/11/01 03:26:49;;;;;;;;;;;;;;;20.70;30.67;97361.25;4908814;29;1443;-80
2023/11/01 03:29:14;;;;;;;;;;;;;;;20.80;30.73;97368.59;4940104;29;1526;-79
2023/11/01 03:31:40;;;;;;;;;;;;;;;21.00;30.50;97371.16;4930818;29;1467;-80
2023/11/01 03:34:05;;;;;;;;;;;;;;;20.79;30.61;97373.47;4883306;29;1525;-79
2023/11/01 03:36:31;;;;;;;;;;;;;;;20.92;30.57;97390.41;4867087;29;1446;-79
2023/11/01 03:38:57;;;;;;;;;;;;;;;20.82;30.88;97377.41;4868289;29;1497;-80
2023/11/01 03:41:22;;;;;;;;;;;;;;;20.73;30.69;97386.59;4893473;29;1475;-79
2023/11/01 03:43:48;;;;;;;;;;;;;;;20.99;30.66;97380.91;4871626;29;1911;-80
2023/11/01 03:46:13;;;;;;;;;;;;;;;20.92;30.50;97381.13;4864931;29;1427;-79
2023/11/01 03:48:39;;;;;;;;;;;;;;;20.95;30.94;97375.34;4866667;29;1458;-79
2023/11/01 03:51:05;;;;;;;;;;;;;;;20.92;31.01;97352.84;4897830;29;1420;-80
2023/11/01 03:53:31;;;;;;;;;;;;;;;20.86;30.97;97321.53;4885939;29;1581;-79
2023/11/01 03:55:57;;;;;;;;;;;;;;;21.07;31.10;97271.91;4921890;29;1516;-79
2023/11/01 03:58:22;;;;;;;;;;;;;;;21.16;30.91;97271.19;4905494;29;1409;-79
2023/11/01 04:00:48;;;;;;;;;;;;;;;21.02;31.19;97261.19;4905709;29;1437;-80
2023/11/01 04:03:13;;;;;;;;;;;;;;;21.15;31.23;97267.59;4921442;29;1974;-80
2023/11/01 04:05:39;;;;;;;;;;;;;;;21.04;31.35;97264.34;4953018;28;1627;-80
2023/11/01 04:08:05;;;;;;;;;;;;;;;21.23;31.32;97277.38;4976257;28;1370;-80
2023/11/01 04:10:30;;;;;;;;;;;;;;;21.09;31.65;97328.84;4977063;28;1402;-80
2023/11/01 04:12:56;;;;;;;;;;;;;;;20.92;32.11;97359.28;4976690;28;1490;-79
2023/11/01 04:15:21;;;;;;;;;;;;;;;21.05;31.57;97370.59;4976733;28;1533;-80
2023/11/01 04:17:47;;;;;;;;;;;;;;;21.18;31.18;97393.16;4976804;28;1351;-80
2023/11/01 04:20:13;;;;;;;;;;;;;;;21.39;30.71;97391.66;4962966;28;1423;-79
2023/11/01 04:22:38;;;;;;;;;;;;;;;21.05;31.27;97396.03;4980857;28;1910;-80
2023/11/01 04:25:05;;;;;;;;;;;;;;;21.10;31.17;97401.13;4979989;28;1387;-80
2023/11/01 04:27:34;;;;;;;;;;;;;;;20.97;31.17;97397.53;4949678;29;1523;-79
2023/11/01 04:30:00;;;;;;;;;;;;;;;20.97;31.08;97389.03;4907248;29;1431;-80
2023/11/01 04:32:28;;;;;;;;;;;;;;;21.07;30.76;97385.06;4937908;29;1429;-80
2023/11/01 04:34:55;;;;;;;;;;;;;;;21.22;30.48;97394.63;4933948;29;1407;-80
2023/11/01 04:37:22;;;;;;;;;;;;;;;21.03;30.66;97395.69;4927719;29;1419;-80
2023/11/01 04:39:48;;;;;;;;;;;;;;;20.87;31.08;97407.16;4912402;29;1431;-79
2023/11/01 04:42:16;;;;;;;;;;;;;;;21.02;30.88;97430.88;4926619;29;1423;-79
2023/11/01 04:44:45;;;;;;;;;;;;;;;21.30;30.14;97432.78;4927345;29;1910;-80
2023/11/01 04:47:10;;;;;;;;;;;;;;;21.50;29.85;97426.03;4927846;29;1426;-80
2023/11/01 04:49:36;;;;;;;;;;;;;;;21.07;30.29;97430.31;4942413;29;1466;-79
2023/11/01 04:52:02;;;;;;;;;;;;;;;20.80;30.83;97425.94;4923615;29;1435;-80
2023/11/01 04:54:28;;;;;;;;;;;;;;;20.78;31.10;97428.44;4926199;29;1431;-79
2023/11/01 04:56:53;;;;;;;;;;;;;;;20.93;30.83;97422.28;4943203;29;1717;-80
2023/11/01 04:59:19;;;;;;;;;;;;;;;20.86;30.70;97409.19;4972856;28;1612;-79
2023/11/01 05:01:47;;;;;;;;;;;;;;;20.94;30.89;97430.34;4980621;28;1704;-80
2023/11/01 05:04:12;;;;;;;;;;;;;;;20.91;30.60;97430.44;4979830;28;1906;-79
2023/11/01 05:06:39;;;;;;;;;;;;;;;20.96;30.41;97435.53;4980073;28;1603;-79
2023/11/01 05:09:04;;;;;;;;;;;;;;;21.00;30.63;97439.84;4963579;28;1435;-79
2023/11/01 05:11:30;;;;;;;;;;;;;;;20.95;30.79;97443.22;4980797;28;1587;-79
2023/11/01 05:13:56;;;;;;;;;;;;;;;21.10;30.46;97454.88;4962948;28;1411;-80
2023/11/01 05:16:21;;;;;;;;;;;;;;;21.13;30.68;97459.59;4981004;28;1545;-80
2023/11/01 05:18:46;;;;;;;;;;;;;;;21.01;30.59;97468.91;4942408;29;1428;-79
2023/11/01 05:21:12;;;;;;;;;;;;;;;21.02;30.80;97471.28;4959651;29;1356;-79
2023/11/01 05:23:37;;;;;;;;;;;;;;;20.98;30.65;97469.81;4958696;29;1977;-79
2023/11/01 05:26:04;;;;;;;;;;;;;;;20.93;30.87;97484.50;4959729;29;1439;-79
2023/11/01 05:28:30;;;;;;;;;;;;;;;20.68;31.19;97490.97;4941587;29;1428;-80
2023/11/01 05:30:55;;;;;;;;;;;;;;;21.05;30.71;97495.03;4958625;28;1615;-80
2023/11/01 05:33:21;;;;;;;;;;;;;;;21.06;30.47;97499.44;4958779;29;1463;-79
2023/11/01 05:35:46;;;;;;;;;;;;;;;21.12;30.73;97496.84;4943234;29;1606;-79
2023/11/01 05:38:12;;;;;;;;;;;;;;;20.97;30.92;97505.00;4957441;29;1464;-80
2023/11/01 05:40:37;;;;;;;;;;;;;;;21.08;30.49;97516.75;4927070;29;1579;-80
2023/11/01 05:43:04;;;;;;;;;;;;;;;20.69;31.07;97513.13;4958611;29;1979;-80
2023/11/01 05:45:30;;;;;;;;;;;;;;;20.91;30.81;97518.13;4959099;29;1466;-80
2023/11/01 05:47:56;;;;;;;;;;;;;;;20.88;30.98;97521.84;4942713;29;1478;-80
2023/11/01 05:50:25;;;;;;;;;;;;;;;20.89;30.98;97534.75;4974426;28;1529;-79
2023/11/01 05:52:51;;;;;;;;;;;;;;;20.88;31.00;97527.50;4980186;28;1553;-78
2023/11/01 05:55:16;;;;;;;;;;;;;;;20.88;30.80;97533.16;4978897;28;1718;-79
2023/11/01 05:57:42;;;;;;;;;;;;;;;21.14;30.47;97534.75;4945891;28;1607;-79
2023/11/01 06:00:09;;;;;;;;;;;;;;;21.20;30.31;97544.25;4980297;28;1695;-80
2023/11/01 06:02:36;;;;;;;;;;;;;;;21.21;30.22;97534.53;4979000;28;1898;-79
2023/11/01 06:05:01;;;;;;;;;;;;;;;21.24;30.04;97550.59;4944555;28;1369;-79
2023/11/01 06:07:27;;;;;;;;;;;;;;;21.18;30.04;97558.06;4979846;28;1542;-78
2023/11/01 06:09:52;;;;;;;;;;;;;;;21.03;30.22;97551.25;4979475;28;1622;-79
2023/11/01 06:12:18;;;;;;;;;;;;;;;20.80;30.87;97547.53;4979193;28;1489;-79
2023/11/01 06:14:43;;;;;;;;;;;;;;;20.90;30.65;97544.81;4978429;28;1402;-80
2023/11/01 06:17:09;;;;;;;;;;;;;;;21.05;30.31;97548.78;4978856;28;1403;-80
2023/11/01 06:19:34;;;;;;;;;;;;;;;20.96;30.42;97546.63;4958766;29;1466;-80
2023/11/01 06:22:00;;;;;;;;;;;;;;;20.96;30.47;97552.28;4933797;28;1628;-80
2023/11/01 06:24:26;;;;;;;;;;;;;;;21.02;30.40;97549.69;4922969;29;1982;-79
2023/11/01 06:26:51;;;;;;;;;;;;;;;21.14;30.28;97557.41;4939031;29;1427;-80
2023/11/01 06:29:17;;;;;;;;;;;;;;;20.87;30.32;97554.19;4922749;29;1421;-80
2023/11/01 06:31:42;;;;;;;;;;;;;;;21.07;30.08;97554.78;4939618;29;1553;-80
2023/11/01 06:34:08;;;;;;;;;;;;;;;21.19;29.98;97554.00;4938296;29;1567;-79
2023/11/01 06:36:33;;;;;;;;;;;;;;;20.93;30.45;97560.88;4939228;29;1467;-79
2023/11/01 06:38:59;;;;;;;;;;;;;;;21.01;30.31;97565.88;4922639;29;1694;-80
2023/11/01 06:41:25;;;;;;;;;;;;;;;21.02;30.01;97578.75;4938985;29;1538;-79
2023/11/01 06:43:51;;;;;;;;;;;;;;;20.76;30.35;97577.94;4921965;29;1911;-79
2023/11/01 06:46:16;;;;;;;;;;;;;;;20.73;30.75;97583.72;4923137;29;1564;-79
2023/11/01 06:48:42;;;;;;;;;;;;;;;20.87;30.44;97591.75;4922400;29;1605;-80
2023/11/01 06:51:10;;;;;;;;;;;;;;;21.07;30.17;97583.06;4920256;29;1499;-79
2023/11/01 06:53:36;;;;;;;;;;;;;;;20.86;30.25;97592.19;4935204;29;1545;-80
2023/11/01 06:56:03;;;;;;;;;;;;;;;21.03;29.95;97591.66;4969471;28;1377;-79
2023/11/01 06:58:29;;;;;;;;;;;;;;;21.10;29.95;97607.63;4977291;28;1327;-80
2023/11/01 07:00:54;;;;;;;;;;;;;;;21.11;29.86;97600.72;4961762;28;1629;-79
2023/11/01 07:03:20;;;;;;;;;;;;;;;20.76;30.60;97599.75;4978474;28;1992;-78
2023/11/01 07:05:46;;;;;;;;;;;;;;;20.95;30.20;97600.81;4978621;28;1381;-79
2023/11/01 07:08:11;;;;;;;;;;;;;;;21.07;30.08;97609.31;4977358;28;1573;-79
2023/11/01 07:10:37;;;;;;;;;;;;;;;21.18;30.13;97592.00;4978554;28;1574;-80
2023/11/01 07:13:05;;;;;;;;;;;;;;;21.14;30.07;97588.50;4978430;28;1361;-79
2023/11/01 07:15:30;;;;;;;;;;;;;;;20.98;30.38;97580.91;4978973;28;1413;-79
2023/11/01 07:17:55;;;;;;;;;;;;;;;20.95;31.02;97575.38;4944037;29;1656;-79
2023/11/01 07:20:21;;;;;;;;;;;;;;;20.96;30.68;97585.44;4972692;28;1403;-79
2023/11/01 07:22:46;;;;;;;;;;;;;;;21.09;30.73;97589.06;4977239;28;1961;-80
2023/11/01 07:25:12;;;;;;;;;;;;;;;21.03;30.79;97585.19;4977157;28;1582;-80
2023/11/01 07:27:37;;;;;;;;;;;;;;;20.97;30.76;97584.19;4977163;28;1563;-79
2023/11/01 07:30:03;;;;;;;;;;;;;;;20.86;31.39;97595.03;4977332;28;1558;-80
2023/11/01 07:32:29;;;;;;;;;;;;;;;21.04;30.82;97581.16;4960965;28;1383;-79
2023/11/01 07:34:54;;;;;;;;;;;;;;;21.22;30.71;97574.94;4977714;28;1355;-79
2023/11/01 07:37:20;;;;;;;;;;;;;;;21.39;30.30;97572.78;4977388;28;1434;-80
2023/11/01 07:39:45;;;;;;;;;;;;;;;21.12;31.07;97593.81;4978328;28;1678;-78
2023/11/01 07:42:11;;;;;;;;;;;;;;;21.14;31.07;97602.66;4977804;28;1283;-80
2023/11/01 07:44:36;;;;;;;;;;;;;;;21.17;31.02;97596.09;4959163;29;1918;-81
2023/11/01 07:47:02;;;;;;;;;;;;;;;21.04;31.38;97586.81;4942387;29;1187;-79
2023/11/01 07:49:27;;;;;;;;;;;;;;;21.03;31.21;97585.19;4958031;29;972;-79
2023/11/01 07:51:53;;;;;;;;;;;;;;;21.14;31.21;97585.69;4958559;29;946;-79
2023/11/01 07:54:19;;;;;;;;;;;;;;;21.12;31.44;97591.00;4941067;29;1857;-79
2023/11/01 07:56:44;;;;;;;;;;;;;;;21.08;31.58;97610.88;4945238;28;1423;-77
2023/11/01 07:59:10;;;;;;;;;;;;;;;21.22;31.18;97634.34;4977222;28;1115;-77
2023/11/01 08:01:36;;;;;;;;;;;;;;;21.30;30.83;97650.69;4960032;28;937;-78
2023/11/01 08:04:02;;;;;;;;;;;;;;;21.27;30.94;97654.38;4943898;28;1911;-78
2023/11/01 08:06:29;;;;;;;;;;;;;;;21.42;30.60;97651.94;4960743;28;1011;-77
2023/11/01 08:08:55;;;;;;;;;;;;;;;21.40;30.41;97653.63;4944865;28;876;-77
2023/11/01 08:11:20;;;;;;;;;;;;;;;21.08;31.19;97649.69;4960526;28;1147;-77
2023/11/01 08:13:46;;;;;;;;;;;;;;;21.02;30.92;97657.16;4977275;28;973;-77
2023/11/01 08:16:11;;;;;;;;;;;;;;;21.25;30.51;97637.06;4944290;28;1128;-77
2023/11/01 08:18:37;;;;;;;;;;;;;;;20.80;31.21;97640.81;4944493;28;1241;-78
2023/11/01 08:21:04;;;;;;;;;;;;;;;21.13;30.90;97643.50;4976041;28;1536;-77
2023/11/01 08:23:30;;;;;;;;;;;;;;;21.70;30.08;97638.88;4953225;28;1989;-77
2023/11/01 08:25:55;;;;;;;;;;;;;;;21.65;30.10;97636.63;4948183;28;1860;-77
2023/11/01 08:28:22;;;;;;;;;;;;;;;21.71;30.18;97634.84;4943493;28;1664;-77
2023/11/01 08:30:48;;;;;;;;;;;;;;;21.59;30.31;97635.63;4940719;28;1549;-77
2023/11/01 08:33:13;;;;;;;;;;;;;;;21.91;30.07;97630.94;4922623;29;1946;-78
2023/11/01 08:35:39;;;;;;;;;;;;;;;21.88;30.33;97631.88;4901051;29;1960;-78
2023/11/01 08:38:08;;;;;;;;;;;;;;;21.41;30.83;97627.72;4904316;29;1675;-77
2023/11/01 08:40:34;;;;;;;;;;;;;;;21.47;30.78;97634.38;4920494;29;1935;-77
2023/11/01 08:43:00;;;;;;;;;;;;;;;21.58;30.84;97637.66;4920889;29;2022;-78
2023/11/01 08:45:25;;;;;;;;;;;;;;;21.44;30.89;97637.31;4936173;29;1963;-78
2023/11/01 08:47:51;;;;;;;;;;;;;;;21.47;31.06;97647.75;4902347;29;2048;-78
2023/11/01 08:50:16;;;;;;;;;;;;;;;21.37;31.26;97646.03;4920596;29;1746;-77
2023/11/01 08:52:45;;;;;;;;;;;;;;;21.44;31.22;97649.44;4905066;29;1197;-78
2023/11/01 08:55:12;;;;;;;;;;;;;;;21.37;31.00;97658.16;4930199;29;1062;-78
2023/11/01 08:57:41;;;;;;;;;;;;;;;21.27;31.24;97647.94;4955633;29;984;-78
2023/11/01 09:00:07;;;;;;;;;;;;;;;21.19;31.33;97650.19;4939695;29;990;-78
2023/11/01 09:02:32;;;;;;;;;;;;;;;21.29;31.07;97642.59;4939833;29;963;-78
2023/11/01 09:04:58;;;;;;;;;;;;;;;21.19;31.18;97655.84;4939599;28;1965;-78
2023/11/01 09:07:23;;;;;;;;;;;;;;;21.30;31.17;97638.56;4958663;29;1469;-78
2023/11/01 09:09:52;;;;;;;;;;;;;;;21.31;31.06;97643.00;4946394;28;1003;-78
2023/11/01 09:12:18;;;;;;;;;;;;;;;21.28;31.38;97641.03;4979899;28;1498;-78
2023/11/01 09:14:44;;;;;;;;;;;;;;;21.28;31.14;97655.16;4979519;28;966;-77
2023/11/01 09:17:09;;;;;;;;;;;;;;;21.22;31.13;97654.16;4979295;28;1466;-77
2023/11/01 09:19:35;;;;;;;;;;;;;;;21.30;30.90;97636.53;4968581;28;1578;-78
2023/11/01 09:22:00;;;;;;;;;;;;;;;21.63;30.53;97649.66;4979780;28;1184;-79
2023/11/01 09:24:26;;;;;;;;;;;;;;;21.50;30.79;97646.81;4979243;28;1981;-77
2023/11/01 09:26:51;;;;;;;;;;;;;;;21.28;30.94;97647.47;4963458;28;1218;-78
2023/11/01 09:29:17;;;;;;;;;;;;;;;21.28;31.11;97647.47;4963294;28;1195;-78
2023/11/01 09:31:42;;;;;;;;;;;;;;;21.43;30.88;97647.06;4962772;28;1540;-78
2023/11/01 09:34:08;;;;;;;;;;;;;;;21.46;30.68;97640.50;4962210;28;1523;-78
2023/11/01 09:36:43;;;;;;;;;;;;;;;21.41;30.91;97650.34;4978792;28;1637;-77
2023/11/01 09:39:08;;;;;;;;;;;;;;;21.20;30.99;97667.97;4978056;28;1482;-78
2023/11/01 09:41:40;;;;;;;;;;;;;;;21.34;30.65;97670.38;4978753;28;1403;-78
2023/11/01 09:44:05;;;;;;;;;;;;;;;21.10;31.32;97678.34;4959437;28;1910;-77
2023/11/01 09:46:31;;;;;;;;;;;;;;;21.08;31.01;97678.78;4959522;29;1363;-77
2023/11/01 09:48:56;;;;;;;;;;;;;;;21.28;31.10;97675.78;4973931;28;1554;-78
2023/11/01 09:51:22;;;;;;;;;;;;;;;21.36;30.80;97669.94;4959368;29;1380;-78
2023/11/01 09:53:47;;;;;;;;;;;;;;;21.08;31.25;97661.03;4977948;28;1430;-78
2023/11/01 09:56:13;;;;;;;;;;;;;;;21.06;31.24;97669.97;4978359;28;1442;-78
2023/11/01 09:58:39;;;;;;;;;;;;;;;21.11;31.16;97659.34;4978229;28;1525;-78
2023/11/01 10:01:05;;;;;;;;;;;;;;;21.20;30.72;97654.59;4962230;28;1462;-77
2023/11/01 10:03:30;;;;;;;;;;;;;;;21.10;31.10;97646.44;4957407;29;1922;-78
2023/11/01 10:05:56;;;;;;;;;;;;;;;20.86;31.38;97648.75;4957539;29;1532;-78
2023/11/01 10:08:21;;;;;;;;;;;;;;;21.11;31.24;97631.84;4957504;29;1453;-77
2023/11/01 10:10:47;;;;;;;;;;;;;;;21.41;30.65;97650.34;4942102;29;1654;-78
2023/11/01 10:13:12;;;;;;;;;;;;;;;21.10;30.91;97663.41;4957454;29;1455;-78
2023/11/01 10:15:38;;;;;;;;;;;;;;;21.24;30.63;97657.31;4941215;29;1998;-77
2023/11/01 10:18:04;;;;;;;;;;;;;;;20.92;31.16;97661.09;4919716;29;1496;-77
2023/11/01 10:20:29;;;;;;;;;;;;;;;21.18;30.86;97657.06;4925994;29;1431;-78
2023/11/01 10:22:55;;;;;;;;;;;;;;;21.28;30.62;97635.34;4904956;29;1914;-78
2023/11/01 10:25:21;;;;;;;;;;;;;;;21.12;30.67;97644.75;4884461;29;1572;-78
2023/11/01 10:27:47;;;;;;;;;;;;;;;21.26;30.49;97641.47;4882361;29;1409;-78
2023/11/01 10:30:13;;;;;;;;;;;;;;;21.45;30.27;97644.56;4899038;29;1620;-78
2023/11/01 10:32:39;;;;;;;;;;;;;;;21.49;30.13;97648.06;4857768;29;1562;-77
2023/11/01 10:35:11;;;;;;;;;;;;;;;21.42;30.46;97639.81;4840443;29;1538;-78
2023/11/01 10:37:36;;;;;;;;;;;;;;;21.26;30.61;97638.66;4865232;29;1409;-78
2023/11/01 10:40:04;;;;;;;;;;;;;;;21.37;30.56;97643.22;4881474;29;1357;-78
2023/11/01 10:42:29;;;;;;;;;;;;;;;21.57;30.36;97638.13;4866239;29;1562;-78
2023/11/01 10:44:55;;;;;;;;;;;;;;;21.43;30.61;97641.41;4881163;29;1906;-78
2023/11/01 10:47:21;;;;;;;;;;;;;;;21.31;30.79;97646.59;4849429;29;1534;-77
2023/11/01 10:49:47;;;;;;;;;;;;;;;21.58;30.40;97645.38;4849287;29;1419;-78
2023/11/01 10:52:12;;;;;;;;;;;;;;;21.33;30.75;97652.59;4866114;29;1501;-77
2023/11/01 10:54:38;;;;;;;;;;;;;;;21.11;31.08;97653.69;4849603;29;1630;-78
2023/11/01 10:57:04;;;;;;;;;;;;;;;21.39;30.84;97635.06;4884425;29;1571;-77
2023/11/01 10:59:32;;;;;;;;;;;;;;;21.47;30.28;97642.88;4884210;29;1496;-78
2023/11/01 11:02:16;;;;;;;;;;;;;;;21.61;30.19;97652.97;4892232;29;1456;-78
2023/11/01 11:04:45;;;;;;;;;;;;;;;21.39;30.65;97647.16;4929724;29;1898;-78
2023/11/01 11:07:29;;;;;;;;;;;;;;;21.30;30.88;97655.56;4905270;29;1625;-78
2023/11/01 11:10:12;;;;;;;;;;;;;;;21.24;30.72;97652.47;4920960;29;1475;-78
2023/11/01 11:12:38;;;;;;;;;;;;;;;21.30;30.71;97650.69;4913500;29;1393;-78
2023/11/01 11:15:04;;;;;;;;;;;;;;;21.42;30.28;97651.13;4914043;29;1643;-77
2023/11/01 11:17:30;;;;;;;;;;;;;;;21.22;30.63;97649.28;4920606;29;1368;-78
2023/11/01 11:20:05;;;;;;;;;;;;;;;21.48;30.67;97646.50;4904322;29;1603;-78
2023/11/01 11:22:49;;;;;;;;;;;;;;;21.22;30.68;97656.97;4904939;29;1599;-78
2023/11/01 11:25:38;;;;;;;;;;;;;;;21.31;30.65;97640.94;4933213;28;1455;-78
2023/11/01 11:28:05;;;;;;;;;;;;;;;21.17;31.14;97641.34;4900067;29;1487;-78
2023/11/01 11:30:46;;;;;;;;;;;;;;;21.29;30.74;97640.56;4874734;29;1389;-78
2023/11/01 11:33:12;;;;;;;;;;;;;;;21.47;30.74;97636.44;4900919;29;1519;-78
2023/11/01 11:35:38;;;;;;;;;;;;;;;21.50;30.37;97630.66;4886193;29;1400;-78
2023/11/01 11:38:23;;;;;;;;;;;;;;;21.25;30.90;97631.41;4885292;29;1542;-77
2023/11/01 11:41:15;;;;;;;;;;;;;;;21.40;30.57;97634.63;4871199;29;1421;-78
2023/11/01 11:43:59;;;;;;;;;;;;;;;21.14;31.36;97636.63;4793451;29;1999;-78
2023/11/01 11:46:31;;;;;;;;;;;;;;;21.25;30.83;97634.25;4809204;29;1574;-78
2023/11/01 11:49:03;;;;;;;;;;;;;;;21.37;30.99;97632.69;4794378;29;1534;-78
2023/11/01 11:51:29;;;;;;;;;;;;;;;21.40;30.84;97625.31;4808367;29;1411;-78
2023/11/01 11:53:55;;;;;;;;;;;;;;;21.59;30.35;97627.91;4822519;29;1578;-78
2023/11/01 11:56:21;;;;;;;;;;;;;;;21.47;30.81;97630.75;4806765;29;1365;-78
2023/11/01 11:58:46;;;;;;;;;;;;;;;21.14;31.04;97624.47;4823908;29;1582;-78
2023/11/01 12:01:25;;;;;;;;;;;;;;;21.21;31.16;97630.72;4822258;29;1533;-77
2023/11/01 12:03:50;;;;;;;;;;;;;;;21.35;31.11;97631.53;4822295;29;1919;-78
2023/11/01 12:06:16;;;;;;;;;;;;;;;21.38;31.06;97617.28;4825140;29;1459;-78
2023/11/01 12:08:42;;;;;;;;;;;;;;;21.31;30.83;97632.47;4824316;29;1920;-77
2023/11/01 12:11:09;;;;;;;;;;;;;;;21.41;30.92;97638.25;4825571;29;1392;-77
2023/11/01 12:13:48;;;;;;;;;;;;;;;21.32;30.95;97642.53;4809875;29;1518;-78
2023/11/01 12:16:26;;;;;;;;;;;;;;;21.08;31.23;97649.69;4824629;29;1563;-78
2023/11/01 12:19:10;;;;;;;;;;;;;;;21.32;31.07;97648.19;4861061;29;1493;-78
2023/11/01 12:21:42;;;;;;;;;;;;;;;21.14;31.27;97647.94;4973900;28;1361;-78
2023/11/01 12:24:09;;;;;;;;;;;;;;;21.23;31.10;97650.84;4974988;28;1906;-77
2023/11/01 12:26:36;;;;;;;;;;;;;;;21.25;31.35;97650.44;4975799;28;1415;-78
2023/11/01 12:29:05;;;;;;;;;;;;;;;21.25;30.92;97639.13;4973325;28;1371;-77
2023/11/01 12:31:31;;;;;;;;;;;;;;;21.46;30.65;97640.50;4960035;28;1545;-77
2023/11/01 12:34:09;;;;;;;;;;;;;;;21.44;30.60;97638.09;4955009;29;1349;-78
2023/11/01 12:36:35;;;;;;;;;;;;;;;21.33;31.06;97638.44;4924049;29;1443;-77
2023/11/01 12:39:01;;;;;;;;;;;;;;;21.65;30.52;97647.94;4955407;29;1484;-78
2023/11/01 12:41:26;;;;;;;;;;;;;;;21.45;30.63;97638.91;4958440;28;1404;-78
2023/11/01 12:43:52;;;;;;;;;;;;;;;21.59;30.60;97638.44;4940009;29;1922;-78
2023/11/01 12:46:17;;;;;;;;;;;;;;;21.50;30.38;97639.16;4918729;29;1428;-78
2023/11/01 12:48:43;;;;;;;;;;;;;;;21.39;30.65;97647.16;4917471;29;1456;-78
2023/11/01 12:51:10;;;;;;;;;;;;;;;21.32;31.03;97648.19;4924437;29;1656;-78
2023/11/01 12:53:36;;;;;;;;;;;;;;;21.33;30.99;97641.28;4939468;29;1583;-77